Newcomb, NY

7:31 AM EDT on May 27, 2017 (GMT -0400)
Goodnow flow | | Change Station

Elev 1654 ft 43.92 °N, 74.21 °W | Updated 2 minutes ago

Mostly Cloudy
Mostly Cloudy
45.8 °F
Feels Like 46 °F
N
0.0
Wind Variable Wind from SSW
Gusts 0.0 mph

Today
High -- | Low -- °F
--% Chance of Precip.
Yesterday
High -- | Low -- °F
Precip. -- in
Pressure 29.90 in
Visibility 4.0 miles
Clouds Mostly Cloudy 300 ft
Overcast 7000 ft
Windchill 46 °F
Dew Point 45 °F
Humidity 98%
Rainfall 0.00 in
Snow Depth Not available.
5:19 AM 8:28 PM
Waxing Crescent, 4% visible
SPECI KSLK 271106Z AUTO 20003KT 4SM BR BKN003 OVC070 07/07 A2990 RMK AO2 CIG 001V005 T00670067
Pressure 29.90 in
Visibility 4.0 miles
Clouds Mostly Cloudy 300 ft
Overcast 7000 ft
Windchill 46 °F
Dew Point 45 °F
Humidity 98%
Rainfall 0.00 in
Snow Depth Not available.
5:19 AM 8:28 PM
Waxing Crescent, 4% visible
SPECI KSLK 271106Z AUTO 20003KT 4SM BR BKN003 OVC070 07/07 A2990 RMK AO2 CIG 001V005 T00670067

Get Severe Weather Alerts

Thanks for signing up!

Be on the lookout for a verification email in your inbox.

You'll start receiving the daily forecast at 6 AM.

×

10-Day Weather Forecast

Almanac

Astronomy

May. 27, 2017 Rise Set
Actual Time
Civil Twilight
Nautical Twilight
Astronomical Twilight
Moon
Length of Visible Light
Length of Day
Tomorrow will be .
, % of the Moon is Illuminated

Today's Extremes

State Highs State Lows

Community

WunderPhotos

Category 6

Welcome to Category 6. This is the collective home for Weather Underground's featured writeups by Dr. Jeff Masters (right), Bob Henson (left), Chris Burt, and other regular contributors.

Nearby

Air Quality

  Air Quality AQ Index Pollutant
Not available.

Snow Depth

Station Depth Elevation

Earthquake Activity

City Distance Mag. Time & Date
Minimum magnitude displayed is 2.5.

Coastal Water Temperatures

Place Temperature

Stations

Nearby Weather Stations

Station Location Temp. Windchill Dew Point Humidity Wind Precip. Elev Updated Type
                   

Watches & Warnings

There are currently no watches in effect.